sensor_id;sensor_type;location;lat;lon;timestamp;pressure;altitude;pressure_sealevel;temperature;humidity
6024;BME280;3040;42.654;23.296;2023-06-14T00:02:16;93961.31;;;18.80;96.22
6024;BME280;3040;42.654;23.296;2023-06-14T00:04:43;93972.09;;;18.80;95.42
6024;BME280;3040;42.654;23.296;2023-06-14T00:07:10;93965.47;;;18.92;95.07
6024;BME280;3040;42.654;23.296;2023-06-14T00:09:40;93965.81;;;18.97;95.32
6024;BME280;3040;42.654;23.296;2023-06-14T00:12:08;93956.56;;;18.98;95.38
6024;BME280;3040;42.654;23.296;2023-06-14T00:14:34;93961.56;;;18.96;95.67
6024;BME280;3040;42.654;23.296;2023-06-14T00:17:01;93953.53;;;18.89;96.24
6024;BME280;3040;42.654;23.296;2023-06-14T00:19:28;93953.69;;;18.68;97.33
6024;BME280;3040;42.654;23.296;2023-06-14T00:21:58;93952.50;;;18.69;97.55
6024;BME280;3040;42.654;23.296;2023-06-14T00:24:24;93925.25;;;18.60;97.02
6024;BME280;3040;42.654;23.296;2023-06-14T00:26:52;93945.88;;;18.84;96.49
6024;BME280;3040;42.654;23.296;2023-06-14T00:29:20;93876.88;;;18.42;95.62
6024;BME280;3040;42.654;23.296;2023-06-14T00:31:47;93954.22;;;19.00;95.87
6024;BME280;3040;42.654;23.296;2023-06-14T00:34:14;93945.78;;;18.98;95.16
6024;BME280;3040;42.654;23.296;2023-06-14T00:36:41;93956.63;;;18.88;96.27
6024;BME280;3040;42.654;23.296;2023-06-14T00:39:07;93903.72;;;18.60;95.91
6024;BME280;3040;42.654;23.296;2023-06-14T00:41:35;93948.50;;;18.95;96.03
6024;BME280;3040;42.654;23.296;2023-06-14T00:44:04;93944.25;;;18.97;95.31
6024;BME280;3040;42.654;23.296;2023-06-14T00:46:30;93938.97;;;18.83;96.30
6024;BME280;3040;42.654;23.296;2023-06-14T00:48:58;93931.25;;;18.85;96.40
6024;BME280;3040;42.654;23.296;2023-06-14T00:51:27;93935.81;;;18.92;96.07
6024;BME280;3040;42.654;23.296;2023-06-14T00:53:53;93938.88;;;18.97;95.45
6024;BME280;3040;42.654;23.296;2023-06-14T00:56:21;93934.97;;;19.02;94.44
6024;BME280;3040;42.654;23.296;2023-06-14T00:58:48;93920.38;;;18.96;94.53
6024;BME280;3040;42.654;23.296;2023-06-14T01:01:17;93928.81;;;19.01;95.08
6024;BME280;3040;42.654;23.296;2023-06-14T01:03:44;93927.28;;;19.00;95.01
6024;BME280;3040;42.654;23.296;2023-06-14T01:06:17;93934.19;;;19.01;95.05
6024;BME280;3040;42.654;23.296;2023-06-14T01:08:59;93935.34;;;19.00;95.17
6024;BME280;3040;42.654;23.296;2023-06-14T01:11:32;93894.34;;;18.75;95.46
6024;BME280;3040;42.654;23.296;2023-06-14T01:14:02;93937.28;;;19.00;95.57
6024;BME280;3040;42.654;23.296;2023-06-14T01:16:31;93929.53;;;19.09;95.44
6024;BME280;3040;42.654;23.296;2023-06-14T01:19:01;93922.16;;;19.13;95.70
6024;BME280;3040;42.654;23.296;2023-06-14T01:21:28;93937.13;;;19.18;95.89
6024;BME280;3040;42.654;23.296;2023-06-14T01:23:56;93925.56;;;19.21;96.25
6024;BME280;3040;42.654;23.296;2023-06-14T01:26:24;93927.09;;;19.22;96.36
6024;BME280;3040;42.654;23.296;2023-06-14T01:28:52;93932.13;;;19.20;96.24
6024;BME280;3040;42.654;23.296;2023-06-14T01:31:21;93928.69;;;19.16;95.58
6024;BME280;3040;42.654;23.296;2023-06-14T01:33:49;93931.41;;;19.12;95.20
6024;BME280;3040;42.654;23.296;2023-06-14T01:36:18;93925.63;;;19.14;95.44
6024;BME280;3040;42.654;23.296;2023-06-14T01:38:46;93923.31;;;19.12;96.00
6024;BME280;3040;42.654;23.296;2023-06-14T01:41:15;93931.03;;;19.14;95.61
6024;BME280;3040;42.654;23.296;2023-06-14T01:43:42;93893.53;;;18.82;96.58
6024;BME280;3040;42.654;23.296;2023-06-14T01:46:10;93929.31;;;18.86;96.55
6024;BME280;3040;42.654;23.296;2023-06-14T01:48:37;93927.41;;;18.83;96.79
6024;BME280;3040;42.654;23.296;2023-06-14T01:51:04;93938.53;;;18.92;97.00
6024;BME280;3040;42.654;23.296;2023-06-14T01:53:31;93928.09;;;18.97;96.89
6024;BME280;3040;42.654;23.296;2023-06-14T01:55:57;93931.47;;;19.05;97.02
6024;BME280;3040;42.654;23.296;2023-06-14T01:58:25;93935.31;;;19.07;96.17
6024;BME280;3040;42.654;23.296;2023-06-14T02:00:52;93926.56;;;18.93;95.34
6024;BME280;3040;42.654;23.296;2023-06-14T02:03:20;93942.72;;;18.93;95.83
6024;BME280;3040;42.654;23.296;2023-06-14T02:05:48;93935.75;;;18.99;95.56
6024;BME280;3040;42.654;23.296;2023-06-14T02:08:15;93952.69;;;19.03;94.88
6024;BME280;3040;42.654;23.296;2023-06-14T02:10:42;93934.97;;;19.02;95.31
6024;BME280;3040;42.654;23.296;2023-06-14T02:13:08;93920.44;;;18.92;95.34
6024;BME280;3040;42.654;23.296;2023-06-14T02:15:37;93956.38;;;19.20;94.91
6024;BME280;3040;42.654;23.296;2023-06-14T02:18:04;93960.25;;;19.19;95.21
6024;BME280;3040;42.654;23.296;2023-06-14T02:20:30;93961.00;;;19.19;94.49
6024;BME280;3040;42.654;23.296;2023-06-14T02:22:57;93961.78;;;19.20;94.85
6024;BME280;3040;42.654;23.296;2023-06-14T02:25:24;93970.03;;;18.98;93.99
6024;BME280;3040;42.654;23.296;2023-06-14T02:27:53;93967.41;;;18.91;94.89
6024;BME280;3040;42.654;23.296;2023-06-14T02:30:20;93921.34;;;18.72;95.82
6024;BME280;3040;42.654;23.296;2023-06-14T02:32:48;93963.91;;;18.94;96.71
6024;BME280;3040;42.654;23.296;2023-06-14T02:35:16;93959.63;;;19.00;96.20
6024;BME280;3040;42.654;23.296;2023-06-14T02:37:43;93969.63;;;19.03;95.36
6024;BME280;3040;42.654;23.296;2023-06-14T02:40:10;93958.78;;;19.07;95.49
6024;BME280;3040;42.654;23.296;2023-06-14T02:42:37;93961.06;;;19.12;94.85
6024;BME280;3040;42.654;23.296;2023-06-14T02:45:05;93957.69;;;19.04;94.39
6024;BME280;3040;42.654;23.296;2023-06-14T02:47:32;93961.06;;;19.12;94.29
6024;BME280;3040;42.654;23.296;2023-06-14T02:50:00;93931.59;;;18.91;95.08
6024;BME280;3040;42.654;23.296;2023-06-14T02:52:27;93955.28;;;19.14;94.23
6024;BME280;3040;42.654;23.296;2023-06-14T02:54:54;93956.81;;;19.15;94.64
6024;BME280;3040;42.654;23.296;2023-06-14T02:57:21;93958.69;;;19.18;94.30
6024;BME280;3040;42.654;23.296;2023-06-14T02:59:48;93959.47;;;19.22;93.74
6024;BME280;3040;42.654;23.296;2023-06-14T03:02:15;93812.41;;;18.21;92.70
6024;BME280;3040;42.654;23.296;2023-06-14T03:04:42;93961.72;;;19.23;92.43
6024;BME280;3040;42.654;23.296;2023-06-14T03:07:11;93965.34;;;19.09;93.58
6024;BME280;3040;42.654;23.296;2023-06-14T03:09:38;93964.97;;;19.07;93.52
6024;BME280;3040;42.654;23.296;2023-06-14T03:12:07;93970.72;;;19.09;93.33
6024;BME280;3040;42.654;23.296;2023-06-14T03:14:34;93978.81;;;19.09;92.63
6024;BME280;3040;42.654;23.296;2023-06-14T03:17:01;93969.63;;;19.00;92.94
6024;BME280;3040;42.654;23.296;2023-06-14T03:19:30;93942.81;;;18.82;93.93
6024;BME280;3040;42.654;23.296;2023-06-14T03:21:56;93979.25;;;19.04;93.76
6024;BME280;3040;42.654;23.296;2023-06-14T03:24:25;93981.91;;;19.08;94.28
6024;BME280;3040;42.654;23.296;2023-06-14T03:26:52;93948.16;;;18.89;94.26
6024;BME280;3040;42.654;23.296;2023-06-14T03:29:19;93961.97;;;18.98;94.54
6024;BME280;3040;42.654;23.296;2023-06-14T03:31:57;93977.28;;;19.08;93.93
6024;BME280;3040;42.654;23.296;2023-06-14T03:34:24;93987.25;;;19.11;94.44
6024;BME280;3040;42.654;23.296;2023-06-14T03:36:51;93985.69;;;19.14;94.62
6024;BME280;3040;42.654;23.296;2023-06-14T03:39:18;93988.41;;;19.14;94.62
6024;BME280;3040;42.654;23.296;2023-06-14T03:41:46;93985.25;;;18.64;93.71
6024;BME280;3040;42.654;23.296;2023-06-14T03:44:15;93991.47;;;18.47;95.59
6024;BME280;3040;42.654;23.296;2023-06-14T03:46:42;93990.72;;;18.50;95.97
6024;BME280;3040;42.654;23.296;2023-06-14T03:49:10;93845.81;;;17.50;95.79
6024;BME280;3040;42.654;23.296;2023-06-14T03:51:37;93970.72;;;18.47;96.13
6024;BME280;3040;42.654;23.296;2023-06-14T03:54:05;93981.03;;;18.63;96.13
6024;BME280;3040;42.654;23.296;2023-06-14T03:56:32;93995.97;;;18.78;95.81
6024;BME280;3040;42.654;23.296;2023-06-14T03:59:00;93988.19;;;18.87;95.93
6024;BME280;3040;42.654;23.296;2023-06-14T04:01:27;93991.22;;;18.96;95.73
6024;BME280;3040;42.654;23.296;2023-06-14T04:03:56;93997.72;;;19.02;94.59
6024;BME280;3040;42.654;23.296;2023-06-14T04:06:23;94004.97;;;19.13;94.16
6024;BME280;3040;42.654;23.296;2023-06-14T04:08:58;93984.28;;;18.95;92.86
6024;BME280;3040;42.654;23.296;2023-06-14T04:11:28;93976.16;;;18.99;92.44
6024;BME280;3040;42.654;23.296;2023-06-14T04:13:55;93997.19;;;19.22;92.93
6024;BME280;3040;42.654;23.296;2023-06-14T04:16:24;93987.16;;;19.26;92.82
6024;BME280;3040;42.654;23.296;2023-06-14T04:18:51;93990.91;;;19.39;92.35
6024;BME280;3040;42.654;23.296;2023-06-14T04:21:18;93997.38;;;19.48;91.78
6024;BME280;3040;42.654;23.296;2023-06-14T04:23:45;93994.22;;;19.57;91.38
6024;BME280;3040;42.654;23.296;2023-06-14T04:26:12;93997.00;;;19.43;89.50
6024;BME280;3040;42.654;23.296;2023-06-14T04:28:39;93995.06;;;18.95;91.26
6024;BME280;3040;42.654;23.296;2023-06-14T04:31:07;93991.00;;;18.73;92.55
6024;BME280;3040;42.654;23.296;2023-06-14T04:33:36;93982.97;;;18.59;94.00
6024;BME280;3040;42.654;23.296;2023-06-14T04:36:09;93993.44;;;19.08;92.72
6024;BME280;3040;42.654;23.296;2023-06-14T04:38:37;93995.66;;;19.21;91.69
6024;BME280;3040;42.654;23.296;2023-06-14T04:41:04;93996.25;;;19.46;88.06
6024;BME280;3040;42.654;23.296;2023-06-14T04:43:31;93979.97;;;19.57;88.13
6024;BME280;3040;42.654;23.296;2023-06-14T04:46:04;93986.78;;;19.68;87.65
6024;BME280;3040;42.654;23.296;2023-06-14T04:48:38;93993.56;;;19.87;87.48
6024;BME280;3040;42.654;23.296;2023-06-14T04:51:06;94000.31;;;20.02;87.52
6024;BME280;3040;42.654;23.296;2023-06-14T04:53:33;94002.03;;;20.23;86.62
6024;BME280;3040;42.654;23.296;2023-06-14T04:56:00;94004.66;;;20.26;85.85
6024;BME280;3040;42.654;23.296;2023-06-14T04:58:28;94005.38;;;20.34;84.18
6024;BME280;3040;42.654;23.296;2023-06-14T05:00:56;94005.25;;;20.45;83.94
6024;BME280;3040;42.654;23.296;2023-06-14T05:03:24;94015.66;;;20.12;84.91
6024;BME280;3040;42.654;23.296;2023-06-14T05:05:53;94015.34;;;20.41;85.00
6024;BME280;3040;42.654;23.296;2023-06-14T05:08:20;94012.44;;;20.21;83.44
6024;BME280;3040;42.654;23.296;2023-06-14T05:10:48;94020.84;;;20.30;84.27
6024;BME280;3040;42.654;23.296;2023-06-14T05:13:15;94023.41;;;20.44;84.02
6024;BME280;3040;42.654;23.296;2023-06-14T05:15:42;94019.44;;;20.52;84.49
6024;BME280;3040;42.654;23.296;2023-06-14T05:18:09;94016.56;;;20.66;85.00
6024;BME280;3040;42.654;23.296;2023-06-14T05:20:36;94020.34;;;20.73;83.19
6024;BME280;3040;42.654;23.296;2023-06-14T05:23:04;94038.81;;;20.78;82.51
6024;BME280;3040;42.654;23.296;2023-06-14T05:25:31;94031.03;;;20.80;82.86
6024;BME280;3040;42.654;23.296;2023-06-14T05:27:58;93883.66;;;19.87;81.37
6024;BME280;3040;42.654;23.296;2023-06-14T05:30:25;94047.16;;;20.90;81.19
6024;BME280;3040;42.654;23.296;2023-06-14T05:32:52;94040.88;;;20.97;81.00
6024;BME280;3040;42.654;23.296;2023-06-14T05:35:20;94045.38;;;21.07;82.08
6024;BME280;3040;42.654;23.296;2023-06-14T05:37:48;94006.28;;;20.85;81.18
6024;BME280;3040;42.654;23.296;2023-06-14T05:40:17;94048.13;;;21.30;81.45
6024;BME280;3040;42.654;23.296;2023-06-14T05:42:43;94045.22;;;21.44;82.05
6024;BME280;3040;42.654;23.296;2023-06-14T05:45:10;94053.56;;;21.53;81.90
6024;BME280;3040;42.654;23.296;2023-06-14T05:47:37;93905.41;;;20.64;81.01
6024;BME280;3040;42.654;23.296;2023-06-14T05:50:05;94058.75;;;21.68;80.95
6024;BME280;3040;42.654;23.296;2023-06-14T05:52:32;94054.94;;;21.65;80.94
6024;BME280;3040;42.654;23.296;2023-06-14T05:54:59;94022.16;;;21.36;81.05
6024;BME280;3040;42.654;23.296;2023-06-14T05:57:28;94060.16;;;21.52;80.00
6024;BME280;3040;42.654;23.296;2023-06-14T05:59:54;94035.06;;;21.25;80.69
6024;BME280;3040;42.654;23.296;2023-06-14T06:02:21;94055.78;;;21.35;81.29
6024;BME280;3040;42.654;23.296;2023-06-14T06:04:48;94066.66;;;21.32;81.24
6024;BME280;3040;42.654;23.296;2023-06-14T06:07:15;94044.13;;;21.11;80.64
6024;BME280;3040;42.654;23.296;2023-06-14T06:09:42;94062.13;;;21.25;81.02
6024;BME280;3040;42.654;23.296;2023-06-14T06:12:09;94056.81;;;21.18;81.32
6024;BME280;3040;42.654;23.296;2023-06-14T06:14:37;94063.81;;;21.16;81.79
6024;BME280;3040;42.654;23.296;2023-06-14T06:17:04;94058.41;;;21.12;82.17
6024;BME280;3040;42.654;23.296;2023-06-14T06:19:31;94065.47;;;21.06;82.38
6024;BME280;3040;42.654;23.296;2023-06-14T06:21:58;94070.25;;;20.95;83.05
6024;BME280;3040;42.654;23.296;2023-06-14T06:24:25;94032.69;;;20.74;83.26
6024;BME280;3040;42.654;23.296;2023-06-14T06:26:52;94068.63;;;21.01;84.19
6024;BME280;3040;42.654;23.296;2023-06-14T06:29:19;94027.88;;;20.58;84.10
6024;BME280;3040;42.654;23.296;2023-06-14T06:31:47;94068.00;;;20.90;85.45
6024;BME280;3040;42.654;23.296;2023-06-14T06:34:14;94071.88;;;20.89;85.56
6024;BME280;3040;42.654;23.296;2023-06-14T06:36:41;93915.72;;;19.82;83.90
6024;BME280;3040;42.654;23.296;2023-06-14T06:39:08;94074.94;;;20.91;83.65
6024;BME280;3040;42.654;23.296;2023-06-14T06:41:37;94075.28;;;20.93;82.53
6024;BME280;3040;42.654;23.296;2023-06-14T06:44:05;94076.50;;;20.88;81.47
6024;BME280;3040;42.654;23.296;2023-06-14T06:46:32;94045.97;;;20.61;82.60
6024;BME280;3040;42.654;23.296;2023-06-14T06:49:01;94076.41;;;20.95;84.39
6024;BME280;3040;42.654;23.296;2023-06-14T06:51:28;94058.72;;;20.91;85.00
6024;BME280;3040;42.654;23.296;2023-06-14T06:53:55;94080.00;;;21.19;85.63
6024;BME280;3040;42.654;23.296;2023-06-14T06:56:22;94079.16;;;21.22;85.18
6024;BME280;3040;42.654;23.296;2023-06-14T06:58:49;94077.59;;;21.51;85.21
6024;BME280;3040;42.654;23.296;2023-06-14T07:01:16;94075.38;;;21.70;83.13
6024;BME280;3040;42.654;23.296;2023-06-14T07:03:44;94066.88;;;21.68;81.34
6024;BME280;3040;42.654;23.296;2023-06-14T07:06:12;94083.50;;;21.93;79.26
6024;BME280;3040;42.654;23.296;2023-06-14T07:08:39;94083.41;;;22.00;78.55
6024;BME280;3040;42.654;23.296;2023-06-14T07:11:06;94082.16;;;22.24;80.34
6024;BME280;3040;42.654;23.296;2023-06-14T07:13:32;94085.00;;;22.41;79.61
6024;BME280;3040;42.654;23.296;2023-06-14T07:16:00;94048.84;;;22.27;76.16
6024;BME280;3040;42.654;23.296;2023-06-14T07:18:30;94090.56;;;22.73;77.78
6024;BME280;3040;42.654;23.296;2023-06-14T07:20:57;94088.56;;;22.77;76.46
6024;BME280;3040;42.654;23.296;2023-06-14T07:23:25;94079.00;;;22.69;74.70
6024;BME280;3040;42.654;23.296;2023-06-14T07:25:52;93946.69;;;21.85;74.77
6024;BME280;3040;42.654;23.296;2023-06-14T07:28:18;94084.44;;;22.69;74.16
6024;BME280;3040;42.654;23.296;2023-06-14T07:30:45;94079.59;;;22.80;74.40
6024;BME280;3040;42.654;23.296;2023-06-14T07:33:13;94083.41;;;22.83;73.10
6024;BME280;3040;42.654;23.296;2023-06-14T07:35:40;94079.09;;;22.85;72.89
6024;BME280;3040;42.654;23.296;2023-06-14T07:38:07;94071.59;;;22.93;72.36
6024;BME280;3040;42.654;23.296;2023-06-14T07:40:35;94045.47;;;22.83;72.92
6024;BME280;3040;42.654;23.296;2023-06-14T07:43:02;94076.56;;;23.14;74.51
6024;BME280;3040;42.654;23.296;2023-06-14T07:45:29;94083.34;;;23.22;71.36
6024;BME280;3040;42.654;23.296;2023-06-14T07:47:56;94073.53;;;22.72;73.57
6024;BME280;3040;42.654;23.296;2023-06-14T07:50:23;94084.56;;;22.42;75.57
6024;BME280;3040;42.654;23.296;2023-06-14T07:52:50;94084.69;;;22.55;74.92
6024;BME280;3040;42.654;23.296;2023-06-14T07:55:16;93977.50;;;21.71;73.81
6024;BME280;3040;42.654;23.296;2023-06-14T07:57:45;94085.47;;;22.12;75.37
6024;BME280;3040;42.654;23.296;2023-06-14T08:00:12;94085.69;;;22.45;76.88
6024;BME280;3040;42.654;23.296;2023-06-14T08:02:41;94090.63;;;22.69;74.27
6024;BME280;3040;42.654;23.296;2023-06-14T08:05:09;94036.91;;;22.45;72.44
6024;BME280;3040;42.654;23.296;2023-06-14T08:07:36;94077.84;;;22.70;71.84
6024;BME280;3040;42.654;23.296;2023-06-14T08:10:03;94112.38;;;23.05;72.02
6024;BME280;3040;42.654;23.296;2023-06-14T08:12:30;94103.47;;;23.25;72.28
6024;BME280;3040;42.654;23.296;2023-06-14T08:14:59;94115.00;;;23.29;70.10
6024;BME280;3040;42.654;23.296;2023-06-14T08:17:26;94115.53;;;23.40;71.91
6024;BME280;3040;42.654;23.296;2023-06-14T08:19:52;94116.94;;;23.64;70.89
6024;BME280;3040;42.654;23.296;2023-06-14T08:22:22;94115.44;;;23.79;69.48
6024;BME280;3040;42.654;23.296;2023-06-14T08:24:50;94119.25;;;23.82;68.14
6024;BME280;3040;42.654;23.296;2023-06-14T08:27:19;94115.84;;;23.78;70.34
6024;BME280;3040;42.654;23.296;2023-06-14T08:29:46;94119.84;;;23.89;68.77
6024;BME280;3040;42.654;23.296;2023-06-14T08:32:14;94122.75;;;23.99;68.07
6024;BME280;3040;42.654;23.296;2023-06-14T08:34:41;94120.19;;;24.08;67.89
6024;BME280;3040;42.654;23.296;2023-06-14T08:37:07;94107.78;;;24.07;66.63
6024;BME280;3040;42.654;23.296;2023-06-14T08:39:35;94120.41;;;24.29;68.90
6024;BME280;3040;42.654;23.296;2023-06-14T08:42:03;94112.03;;;24.24;66.78
6024;BME280;3040;42.654;23.296;2023-06-14T08:44:32;94117.16;;;24.22;66.17
6024;BME280;3040;42.654;23.296;2023-06-14T08:46:59;94083.81;;;24.34;68.66
6024;BME280;3040;42.654;23.296;2023-06-14T08:49:31;94051.91;;;24.22;67.80
6024;BME280;3040;42.654;23.296;2023-06-14T08:51:59;94105.94;;;24.78;65.70
6024;BME280;3040;42.654;23.296;2023-06-14T08:54:27;94102.72;;;24.83;62.80
6024;BME280;3040;42.654;23.296;2023-06-14T08:56:55;94108.09;;;24.99;65.39
6024;BME280;3040;42.654;23.296;2023-06-14T08:59:24;94108.22;;;25.08;64.98
6024;BME280;3040;42.654;23.296;2023-06-14T09:01:52;94083.88;;;25.17;64.50
6024;BME280;3040;42.654;23.296;2023-06-14T09:04:20;94103.25;;;25.44;63.85
6024;BME280;3040;42.654;23.296;2023-06-14T09:06:48;94115.94;;;25.64;61.60
6024;BME280;3040;42.654;23.296;2023-06-14T09:09:19;94105.75;;;25.51;61.31
6024;BME280;3040;42.654;23.296;2023-06-14T09:11:46;94101.63;;;25.47;59.48
6024;BME280;3040;42.654;23.296;2023-06-14T09:14:13;94093.06;;;25.61;61.20
6024;BME280;3040;42.654;23.296;2023-06-14T09:16:40;94091.94;;;25.84;61.99
6024;BME280;3040;42.654;23.296;2023-06-14T09:19:07;94092.72;;;25.84;60.84
6024;BME280;3040;42.654;23.296;2023-06-14T09:21:34;94088.84;;;26.07;62.46
6024;BME280;3040;42.654;23.296;2023-06-14T09:24:03;94098.06;;;26.22;61.20
6024;BME280;3040;42.654;23.296;2023-06-14T09:26:31;94081.84;;;26.31;62.79
6024;BME280;3040;42.654;23.296;2023-06-14T09:28:58;94093.09;;;26.55;62.07
6024;BME280;3040;42.654;23.296;2023-06-14T09:31:25;93982.41;;;25.89;60.61
6024;BME280;3040;42.654;23.296;2023-06-14T09:33:57;94091.47;;;26.58;58.03
6024;BME280;3040;42.654;23.296;2023-06-14T09:36:25;94091.31;;;26.40;58.42
6024;BME280;3040;42.654;23.296;2023-06-14T09:38:53;94069.22;;;26.12;58.54
6024;BME280;3040;42.654;23.296;2023-06-14T09:41:30;93933.19;;;25.11;60.19
6024;BME280;3040;42.654;23.296;2023-06-14T09:43:58;94071.53;;;26.01;61.50
6024;BME280;3040;42.654;23.296;2023-06-14T09:46:26;94082.47;;;26.36;60.90
6024;BME280;3040;42.654;23.296;2023-06-14T09:48:53;94081.16;;;26.62;58.27
6024;BME280;3040;42.654;23.296;2023-06-14T09:51:21;94054.31;;;26.60;56.80
6024;BME280;3040;42.654;23.296;2023-06-14T09:53:49;94080.28;;;27.08;57.13
6024;BME280;3040;42.654;23.296;2023-06-14T09:56:21;94031.47;;;27.10;57.95
6024;BME280;3040;42.654;23.296;2023-06-14T09:58:50;94068.00;;;27.75;55.57
6024;BME280;3040;42.654;23.296;2023-06-14T10:01:20;94070.66;;;28.06;56.45
6024;BME280;3040;42.654;23.296;2023-06-14T10:03:49;94072.03;;;28.10;55.60
6024;BME280;3040;42.654;23.296;2023-06-14T10:06:17;94062.19;;;28.22;54.56
6024;BME280;3040;42.654;23.296;2023-06-14T10:08:44;94061.50;;;27.81;54.17
6024;BME280;3040;42.654;23.296;2023-06-14T10:11:12;94061.22;;;27.88;53.38
6024;BME280;3040;42.654;23.296;2023-06-14T10:13:40;94049.03;;;27.80;53.93
6024;BME280;3040;42.654;23.296;2023-06-14T10:16:11;94049.31;;;27.73;53.79
6024;BME280;3040;42.654;23.296;2023-06-14T10:18:43;94048.78;;;28.06;54.35
6024;BME280;3040;42.654;23.296;2023-06-14T10:21:18;94043.66;;;28.35;54.87
6024;BME280;3040;42.654;23.296;2023-06-14T10:23:48;93819.13;;;27.14;50.00
6024;BME280;3040;42.654;23.296;2023-06-14T10:26:20;94037.88;;;28.97;52.48
6024;BME280;3040;42.654;23.296;2023-06-14T10:28:59;94034.84;;;29.46;52.33
6024;BME280;3040;42.654;23.296;2023-06-14T10:31:43;94047.72;;;29.64;51.59
6024;BME280;3040;42.654;23.296;2023-06-14T10:34:10;94012.28;;;29.00;48.44
6024;BME280;3040;42.654;23.296;2023-06-14T10:36:38;94039.22;;;29.01;50.27
6024;BME280;3040;42.654;23.296;2023-06-14T10:39:07;94029.22;;;28.62;52.55
6024;BME280;3040;42.654;23.296;2023-06-14T10:41:35;94028.47;;;28.80;52.04
6024;BME280;3040;42.654;23.296;2023-06-14T10:44:33;94034.94;;;29.09;49.40
6024;BME280;3040;42.654;23.296;2023-06-14T10:47:01;94024.44;;;29.17;49.32
6024;BME280;3040;42.654;23.296;2023-06-14T10:49:40;94035.09;;;29.57;50.34
6024;BME280;3040;42.654;23.296;2023-06-14T10:52:08;94012.31;;;28.91;49.83
6024;BME280;3040;42.654;23.296;2023-06-14T10:55:01;94017.31;;;29.01;49.62
6024;BME280;3040;42.654;23.296;2023-06-14T10:57:29;93992.16;;;29.21;51.80
6024;BME280;3040;42.654;23.296;2023-06-14T10:59:58;94005.34;;;29.98;47.55
6024;BME280;3040;42.654;23.296;2023-06-14T11:02:46;93989.06;;;29.94;48.56
6024;BME280;3040;42.654;23.296;2023-06-14T11:05:23;94001.84;;;29.97;47.67
6024;BME280;3040;42.654;23.296;2023-06-14T11:07:58;93967.53;;;29.78;49.32
6024;BME280;3040;42.654;23.296;2023-06-14T11:10:35;94006.69;;;30.41;48.64
6024;BME280;3040;42.654;23.296;2023-06-14T11:13:03;94008.38;;;30.62;47.80
6024;BME280;3040;42.654;23.296;2023-06-14T11:15:31;93898.13;;;29.72;44.19
6024;BME280;3040;42.654;23.296;2023-06-14T11:18:00;93998.94;;;28.93;48.78
6024;BME280;3040;42.654;23.296;2023-06-14T11:20:30;93788.19;;;26.19;52.40
6024;BME280;3040;42.654;23.296;2023-06-14T11:22:57;93760.19;;;25.88;52.69
6024;BME280;3040;42.654;23.296;2023-06-14T11:25:24;93995.63;;;27.39;54.43
6024;BME280;3040;42.654;23.296;2023-06-14T11:27:52;93999.47;;;27.51;54.54
6024;BME280;3040;42.654;23.296;2023-06-14T11:30:18;93986.53;;;27.42;54.62
6024;BME280;3040;42.654;23.296;2023-06-14T11:32:47;93990.84;;;27.52;54.04
6024;BME280;3040;42.654;23.296;2023-06-14T11:35:16;93962.44;;;26.79;53.37
6024;BME280;3040;42.654;23.296;2023-06-14T11:37:43;93990.94;;;27.40;55.22
6024;BME280;3040;42.654;23.296;2023-06-14T11:40:11;93952.03;;;27.85;54.16
6024;BME280;3040;42.654;23.296;2023-06-14T11:42:40;93989.06;;;27.86;52.66
6024;BME280;3040;42.654;23.296;2023-06-14T11:45:08;93984.31;;;27.19;54.18
6024;BME280;3040;42.654;23.296;2023-06-14T11:47:36;93960.72;;;26.42;56.15
6024;BME280;3040;42.654;23.296;2023-06-14T11:50:05;93962.03;;;25.81;56.90
6024;BME280;3040;42.654;23.296;2023-06-14T11:52:34;93969.94;;;25.53;59.90
6024;BME280;3040;42.654;23.296;2023-06-14T11:55:01;93972.41;;;25.86;60.23
6024;BME280;3040;42.654;23.296;2023-06-14T11:57:30;93970.69;;;26.23;55.51
6024;BME280;3040;42.654;23.296;2023-06-14T11:59:57;93955.84;;;26.89;54.43
6024;BME280;3040;42.654;23.296;2023-06-14T12:02:24;93960.34;;;27.54;51.40
6024;BME280;3040;42.654;23.296;2023-06-14T12:04:53;93957.94;;;27.65;51.88
6024;BME280;3040;42.654;23.296;2023-06-14T12:07:21;93958.75;;;27.44;52.97
6024;BME280;3040;42.654;23.296;2023-06-14T12:10:04;93949.41;;;27.05;53.08
6024;BME280;3040;42.654;23.296;2023-06-14T12:12:35;93941.41;;;27.20;54.40
6024;BME280;3040;42.654;23.296;2023-06-14T12:15:03;93941.78;;;27.49;53.05
6024;BME280;3040;42.654;23.296;2023-06-14T12:17:32;93941.53;;;27.74;52.93
6024;BME280;3040;42.654;23.296;2023-06-14T12:20:05;93941.09;;;27.67;52.42
6024;BME280;3040;42.654;23.296;2023-06-14T12:22:37;93933.53;;;27.22;53.80
6024;BME280;3040;42.654;23.296;2023-06-14T12:25:04;93938.47;;;27.05;55.65
6024;BME280;3040;42.654;23.296;2023-06-14T12:27:31;93925.25;;;26.94;55.86
6024;BME280;3040;42.654;23.296;2023-06-14T12:29:59;93938.91;;;26.94;55.91
6024;BME280;3040;42.654;23.296;2023-06-14T12:32:26;93922.50;;;26.63;55.37
6024;BME280;3040;42.654;23.296;2023-06-14T12:34:53;93912.38;;;26.20;55.78
6024;BME280;3040;42.654;23.296;2023-06-14T12:37:20;93925.56;;;26.00;57.82
6024;BME280;3040;42.654;23.296;2023-06-14T12:39:48;93927.72;;;25.83;59.21
6024;BME280;3040;42.654;23.296;2023-06-14T12:42:16;93926.78;;;25.65;60.28
6024;BME280;3040;42.654;23.296;2023-06-14T12:44:43;93921.75;;;25.76;59.61
6024;BME280;3040;42.654;23.296;2023-06-14T12:47:10;93926.00;;;25.77;59.74
6024;BME280;3040;42.654;23.296;2023-06-14T12:49:37;93919.25;;;25.69;59.75
6024;BME280;3040;42.654;23.296;2023-06-14T12:52:04;93920.06;;;25.57;60.79
6024;BME280;3040;42.654;23.296;2023-06-14T12:54:31;93917.81;;;25.30;61.69
6024;BME280;3040;42.654;23.296;2023-06-14T12:56:59;93907.28;;;25.19;62.47
6024;BME280;3040;42.654;23.296;2023-06-14T12:59:26;93914.91;;;24.99;64.42
6024;BME280;3040;42.654;23.296;2023-06-14T13:01:58;93913.69;;;24.74;64.68
6024;BME280;3040;42.654;23.296;2023-06-14T13:04:25;93912.81;;;24.40;65.08
6024;BME280;3040;42.654;23.296;2023-06-14T13:06:52;93890.88;;;24.18;66.19
6024;BME280;3040;42.654;23.296;2023-06-14T13:09:18;93911.44;;;24.19;65.96
6024;BME280;3040;42.654;23.296;2023-06-14T13:11:45;93908.06;;;24.15;67.71
6024;BME280;3040;42.654;23.296;2023-06-14T13:14:13;93911.50;;;24.03;68.03
6024;BME280;3040;42.654;23.296;2023-06-14T13:16:41;93916.94;;;23.74;70.06